Time;durP1;ratioP1;P1;durP2;ratioP2;P2;SDS_P1;SDS_P2;PMS_P1;PMS_P2;Temp;Humidity;BMP_temperature;BMP_pressure;BME280_temperature;BME280_humidity;BME280_pressure;Samples;Min_cycle;Max_cycle;Signal;HPM_P1;HPM_P2
2021/06/07 00:00:57;;;;;;;19.83;7.47;;;;;;;13.18;74.96;102323.16;5105704;28;20053;-64
2021/06/07 00:03:22;;;;;;;20.48;7.60;;;;;;;13.06;75.98;102329.13;5101627;28;20028;-68
2021/06/07 00:05:48;;;;;;;20.17;7.60;;;;;;;13.06;75.87;102318.50;5106039;28;20028;-68
2021/06/07 00:08:13;;;;;;;20.25;7.68;;;;;;;12.97;76.33;102319.25;5103062;28;20024;-67
2021/06/07 00:10:39;;;;;;;20.40;7.85;;;;;;;12.90;76.41;102325.31;5104781;28;20509;-67
2021/06/07 00:13:06;;;;;;;20.05;8.07;;;;;;;12.81;77.45;102315.41;5104142;28;20012;-68
2021/06/07 00:15:33;;;;;;;19.48;7.85;;;;;;;12.73;77.70;102314.41;5103936;28;20024;-68
2021/06/07 00:17:59;;;;;;;19.65;8.18;;;;;;;12.76;78.22;102314.47;5105030;28;20034;-65
2021/06/07 00:20:38;;;;;;;19.85;8.50;;;;;;;12.64;77.70;102314.22;5103006;28;20020;-64
2021/06/07 00:23:04;;;;;;;22.52;8.20;;;;;;;12.44;79.08;102311.19;5104009;28;20027;-68
2021/06/07 00:25:29;;;;;;;20.40;7.72;;;;;;;12.52;78.91;102302.53;5102973;28;20064;-68
2021/06/07 00:27:55;;;;;;;20.65;7.90;;;;;;;12.41;79.15;102314.69;5105157;28;20050;-64
2021/06/07 00:30:21;;;;;;;20.48;7.93;;;;;;;12.35;79.43;102306.59;5102033;28;20028;-64
2021/06/07 00:32:46;;;;;;;20.40;8.20;;;;;;;12.19;80.17;102314.22;5105297;28;20028;-64
2021/06/07 00:35:18;;;;;;;20.98;7.63;;;;;;;12.16;80.47;102305.34;5102943;28;20387;-67
2021/06/07 00:37:43;;;;;;;20.85;7.78;;;;;;;12.26;80.39;102311.69;5104979;28;20020;-63
2021/06/07 00:40:09;;;;;;;20.80;8.00;;;;;;;12.23;80.37;102311.63;5103050;28;20020;-65
2021/06/07 00:42:34;;;;;;;21.30;8.20;;;;;;;12.16;80.63;102308.88;5103551;28;20032;-63
2021/06/07 00:45:00;;;;;;;19.35;8.00;;;;;;;12.12;80.23;102312.31;5104355;28;20509;-68
2021/06/07 00:47:26;;;;;;;20.52;8.30;;;;;;;11.99;81.19;102312.91;5102168;28;20475;-67
2021/06/07 00:49:52;;;;;;;20.55;8.52;;;;;;;11.94;81.37;102303.94;5105386;28;20475;-67
2021/06/07 00:52:17;;;;;;;20.45;8.27;;;;;;;12.00;81.65;102314.72;5101186;28;20028;-68
2021/06/07 00:54:44;;;;;;;22.85;8.85;;;;;;;11.92;81.78;102306.53;5104079;28;20047;-63
2021/06/07 00:57:10;;;;;;;19.70;8.18;;;;;;;11.95;81.44;102309.28;5102633;28;20493;-62
2021/06/07 00:59:35;;;;;;;20.48;8.73;;;;;;;11.94;81.44;102314.56;5103549;28;20021;-62
2021/06/07 01:02:00;;;;;;;20.55;8.43;;;;;;;11.97;80.92;102314.63;5103948;28;20046;-62
2021/06/07 01:04:26;;;;;;;20.45;8.90;;;;;;;11.97;81.24;102311.97;5102323;28;20035;-62
2021/06/07 01:06:51;;;;;;;20.45;9.10;;;;;;;11.89;81.50;102310.88;5104908;28;20069;-62
2021/06/07 01:09:16;;;;;;;20.92;9.05;;;;;;;11.78;81.21;102311.53;5101994;28;20021;-62
2021/06/07 01:11:42;;;;;;;21.80;8.82;;;;;;;11.72;81.95;102307.84;5103903;28;20032;-62
2021/06/07 01:14:07;;;;;;;19.92;8.95;;;;;;;11.62;82.50;102302.34;5102474;28;20020;-62
2021/06/07 01:16:33;;;;;;;22.08;9.40;;;;;;;11.56;83.16;102307.47;5102878;28;20471;-62
2021/06/07 01:18:58;;;;;;;20.70;9.27;;;;;;;11.48;83.48;102304.66;5103878;28;20028;-62
2021/06/07 01:21:26;;;;;;;20.45;9.40;;;;;;;11.46;83.69;102306.38;5101313;28;20028;-62
2021/06/07 01:23:53;;;;;;;21.27;9.75;;;;;;;11.52;83.60;102301.22;5105238;28;20020;-62
2021/06/07 01:26:21;;;;;;;20.95;9.43;;;;;;;11.59;83.38;102304.00;5097062;28;20020;-62
2021/06/07 01:28:47;;;;;;;21.00;9.50;;;;;;;11.38;83.28;102297.34;5104551;28;20019;-62
2021/06/07 01:31:14;;;;;;;21.75;9.50;;;;;;;11.29;83.47;102300.66;5101868;28;20024;-62
2021/06/07 01:33:43;;;;;;;21.20;9.82;;;;;;;11.36;84.29;102299.09;5103361;28;20020;-62
2021/06/07 01:36:09;;;;;;;20.33;9.27;;;;;;;11.38;84.29;102289.41;5102443;28;20385;-62
2021/06/07 01:38:35;;;;;;;21.33;9.43;;;;;;;11.30;83.16;102283.03;5102754;28;20525;-62
2021/06/07 01:41:03;;;;;;;21.90;9.65;;;;;;;11.19;83.69;102296.00;5103544;28;20039;-62
2021/06/07 01:43:30;;;;;;;20.90;10.05;;;;;;;11.18;84.36;102288.91;5100388;28;20046;-68
2021/06/07 01:45:56;;;;;;;20.80;9.90;;;;;;;11.15;84.20;102284.47;5104509;28;20087;-68
2021/06/07 01:48:23;;;;;;;20.80;9.00;;;;;;;11.08;84.15;102287.81;5100882;28;20024;-64
2021/06/07 01:50:51;;;;;;;22.63;9.50;;;;;;;11.06;84.45;102286.88;5096650;28;20017;-64
2021/06/07 01:53:18;;;;;;;20.65;9.57;;;;;;;10.94;85.07;102290.09;5104054;28;20033;-64
2021/06/07 01:55:47;;;;;;;21.65;10.27;;;;;;;10.79;85.68;102295.88;5101804;28;20028;-67
2021/06/07 01:58:15;;;;;;;22.15;10.30;;;;;;;10.69;86.38;102299.16;5103688;28;20024;-68
2021/06/07 02:00:49;;;;;;;22.55;10.35;;;;;;;10.69;86.18;102290.28;5101956;28;20482;-68
2021/06/07 02:03:16;;;;;;;21.58;10.07;;;;;;;10.74;87.81;102291.31;5104311;28;20023;-68
2021/06/07 02:05:44;;;;;;;21.15;10.27;;;;;;;10.68;86.92;102291.19;5101927;28;20027;-67
2021/06/07 02:08:14;;;;;;;21.95;10.25;;;;;;;10.57;87.54;102294.44;5103365;28;20352;-68
2021/06/07 02:10:43;;;;;;;21.40;10.13;;;;;;;10.49;88.19;102289.78;5100885;28;20378;-67
2021/06/07 02:13:13;;;;;;;23.27;10.60;;;;;;;10.45;88.71;102296.72;5102884;28;20050;-67
2021/06/07 02:15:39;;;;;;;22.25;10.55;;;;;;;10.42;88.79;102299.28;5102154;28;20028;-65
2021/06/07 02:18:07;;;;;;;22.73;10.98;;;;;;;10.37;88.40;102291.22;5102100;28;20028;-66
2021/06/07 02:20:34;;;;;;;21.23;11.07;;;;;;;10.24;89.49;102296.97;5103210;28;20394;-68
2021/06/07 02:22:59;;;;;;;22.60;11.13;;;;;;;10.20;89.52;102297.75;5101367;28;20455;-67
2021/06/07 02:25:25;;;;;;;23.13;12.15;;;;;;;10.19;90.69;102299.47;5103759;28;20031;-67
2021/06/07 02:27:51;;;;;;;22.70;11.50;;;;;;;10.09;91.56;102306.25;5103847;28;20032;-62
2021/06/07 02:30:23;;;;;;;22.17;11.40;;;;;;;10.04;91.93;102313.13;5107508;28;20031;-62
2021/06/07 02:32:50;;;;;;;23.08;11.60;;;;;;;10.04;94.06;102302.56;5100444;28;20032;-63
2021/06/07 02:35:18;;;;;;;23.75;12.10;;;;;;;10.00;94.76;102299.78;5107846;28;20035;-62
2021/06/07 02:37:44;;;;;;;23.02;12.20;;;;;;;10.07;95.59;102304.41;5104983;28;20534;-62
2021/06/07 02:40:12;;;;;;;24.02;11.48;;;;;;;10.06;92.73;102311.44;5106273;28;20494;-62
2021/06/07 02:42:40;;;;;;;23.25;11.90;;;;;;;10.08;93.92;102307.09;5106134;28;20031;-62
2021/06/07 02:45:08;;;;;;;22.20;11.38;;;;;;;10.10;92.37;102313.31;5105635;28;20471;-62
2021/06/07 02:47:34;;;;;;;23.08;11.23;;;;;;;10.07;93.77;102307.03;5104840;28;20039;-62
2021/06/07 02:49:59;;;;;;;22.90;11.27;;;;;;;10.00;93.95;102316.53;5105007;28;20020;-62
2021/06/07 02:52:25;;;;;;;22.55;11.48;;;;;;;9.99;93.66;102314.75;5107353;28;20024;-62
2021/06/07 02:54:50;;;;;;;22.83;11.40;;;;;;;9.94;92.97;102313.69;5103725;28;20047;-62
2021/06/07 02:57:16;;;;;;;22.17;10.65;;;;;;;9.91;93.91;102311.84;5107415;28;20036;-62
2021/06/07 02:59:41;;;;;;;21.58;11.30;;;;;;;9.85;94.30;102314.31;5104848;28;20012;-62
2021/06/07 03:02:07;;;;;;;21.83;10.55;;;;;;;9.83;93.21;102323.94;5105850;28;20458;-62
2021/06/07 03:04:32;;;;;;;21.55;10.65;;;;;;;9.84;92.85;102317.78;5106300;28;20028;-62
2021/06/07 03:06:57;;;;;;;22.23;10.20;;;;;;;9.89;92.28;102308.28;5104161;28;20032;-62
2021/06/07 03:09:23;;;;;;;22.10;9.82;;;;;;;9.92;93.20;102315.41;5107448;28;20374;-62
2021/06/07 03:11:48;;;;;;;22.42;10.57;;;;;;;9.89;93.94;102324.13;5103388;28;20016;-62
2021/06/07 03:14:13;;;;;;;22.38;10.13;;;;;;;9.84;91.93;102324.84;5106181;28;20600;-62
2021/06/07 03:16:38;;;;;;;21.95;10.40;;;;;;;9.82;92.88;102329.19;5105491;28;20080;-62
2021/06/07 03:19:04;;;;;;;22.90;10.90;;;;;;;9.71;91.56;102324.47;5104793;28;20103;-62
2021/06/07 03:21:29;;;;;;;24.00;10.70;;;;;;;9.72;91.91;102328.88;5106249;28;20024;-62
2021/06/07 03:23:54;;;;;;;23.60;11.20;;;;;;;9.57;92.83;102331.06;5103645;28;20036;-68
2021/06/07 03:26:21;;;;;;;24.13;10.95;;;;;;;9.54;94.70;102334.47;5106632;28;20024;-67
2021/06/07 03:28:46;;;;;;;24.30;11.60;;;;;;;9.53;95.69;102334.44;5103891;28;20031;-67
2021/06/07 03:31:11;;;;;;;23.13;11.77;;;;;;;9.46;94.83;102335.09;5105863;28;20023;-68
2021/06/07 03:33:37;;;;;;;22.73;11.10;;;;;;;9.56;95.66;102334.53;5105061;28;20069;-69
2021/06/07 03:36:03;;;;;;;21.42;11.48;;;;;;;9.60;96.13;102334.69;5104555;28;20024;-67
2021/06/07 03:38:30;;;;;;;22.70;11.02;;;;;;;9.55;95.03;102338.00;5106028;27;20023;-68
2021/06/07 03:40:57;;;;;;;22.60;10.35;;;;;;;9.64;96.20;102330.41;5103209;28;20030;-67
2021/06/07 03:43:26;;;;;;;20.40;9.50;;;;;;;9.68;95.10;102339.31;5106353;28;20020;-67
2021/06/07 03:45:52;;;;;;;20.58;9.57;;;;;;;9.64;94.27;102330.41;5099391;28;20040;-69
2021/06/07 03:48:17;;;;;;;21.35;10.23;;;;;;;9.68;95.43;102337.56;5106245;28;20019;-64
2021/06/07 03:50:43;;;;;;;22.08;10.32;;;;;;;9.56;93.94;102334.53;5103967;28;20052;-64
2021/06/07 03:53:09;;;;;;;22.38;10.77;;;;;;;9.48;94.68;102330.72;5105023;28;20032;-62
2021/06/07 03:55:35;;;;;;;25.10;11.45;;;;;;;9.43;95.84;102339.41;5104598;28;20032;-62
2021/06/07 03:58:02;;;;;;;23.73;10.82;;;;;;;9.41;95.30;102341.09;5103467;28;20024;-63
2021/06/07 04:00:30;;;;;;;24.05;11.25;;;;;;;9.33;95.02;102336.41;5105948;28;20031;-63
2021/06/07 04:02:57;;;;;;;22.17;11.15;;;;;;;9.34;96.06;102338.22;5102663;28;20471;-62
2021/06/07 04:05:23;;;;;;;22.40;11.25;;;;;;;9.38;96.21;102343.66;5106227;28;20432;-63
2021/06/07 04:07:49;;;;;;;22.77;12.10;;;;;;;9.40;97.90;102343.69;5102797;28;20020;-63
2021/06/07 04:10:20;;;;;;;23.33;11.50;;;;;;;9.40;97.59;102339.28;5105272;28;20378;-64
2021/06/07 04:12:47;;;;;;;22.98;11.43;;;;;;;9.39;96.45;102336.63;5102800;28;20031;-63
2021/06/07 04:15:16;;;;;;;22.20;11.80;;;;;;;9.46;97.30;102335.09;5105036;28;20037;-64
2021/06/07 04:17:41;;;;;;;24.67;12.77;;;;;;;9.45;97.50;102335.91;5103739;28;20031;-62
2021/06/07 04:20:08;;;;;;;25.40;13.07;;;;;;;9.51;97.64;102336.13;5103954;28;20016;-62
2021/06/07 04:22:34;;;;;;;23.98;13.15;;;;;;;9.53;97.45;102350.28;5104861;28;20020;-63
2021/06/07 04:25:00;;;;;;;23.90;13.93;;;;;;;9.58;97.78;102346.03;5102555;28;20027;-63
2021/06/07 04:27:25;;;;;;;26.13;14.75;;;;;;;9.64;98.20;102342.69;5103659;28;20096;-62
2021/06/07 04:29:51;;;;;;;25.00;13.68;;;;;;;9.73;97.05;102351.81;5102296;28;20117;-62
2021/06/07 04:32:16;;;;;;;25.65;13.52;;;;;;;9.81;96.61;102343.25;5104970;28;20031;-66
2021/06/07 04:34:42;;;;;;;25.92;13.80;;;;;;;9.87;96.78;102335.50;5103044;27;20023;-64
2021/06/07 04:37:07;;;;;;;26.25;13.60;;;;;;;9.97;96.65;102337.56;5103700;28;20020;-67
2021/06/07 04:39:33;;;;;;;27.88;13.68;;;;;;;9.98;96.93;102344.66;5104147;28;20032;-67
2021/06/07 04:41:58;;;;;;;24.45;13.80;;;;;;;10.01;97.26;102343.84;5102441;28;20108;-66
2021/06/07 04:44:23;;;;;;;23.02;12.90;;;;;;;10.09;97.23;102340.59;5105252;28;20024;-67
2021/06/07 04:46:49;;;;;;;28.27;15.02;;;;;;;10.21;96.98;102344.47;5102118;28;20024;-66
2021/06/07 04:49:15;;;;;;;26.90;15.43;;;;;;;10.36;96.79;102341.41;5104417;28;20020;-67
2021/06/07 04:51:40;;;;;;;25.67;14.68;;;;;;;10.48;96.12;102343.50;5103192;28;20026;-66
2021/06/07 04:54:05;;;;;;;25.98;14.77;;;;;;;10.55;95.58;102337.53;5102865;28;20144;-67
2021/06/07 04:56:31;;;;;;;24.02;14.65;;;;;;;10.70;94.97;102335.28;5104341;28;20108;-64
2021/06/07 04:58:56;;;;;;;26.73;14.48;;;;;;;10.74;93.49;102333.66;5101661;28;20028;-66
2021/06/07 05:01:21;;;;;;;25.60;14.90;;;;;;;10.84;91.53;102334.81;5105315;28;20359;-67
2021/06/07 05:03:47;;;;;;;27.15;14.90;;;;;;;10.95;91.82;102338.59;5101968;28;20016;-66
2021/06/07 05:06:12;;;;;;;25.35;14.48;;;;;;;11.05;90.49;102334.47;5103686;28;20063;-66
2021/06/07 05:08:37;;;;;;;25.23;15.20;;;;;;;11.08;89.38;102330.16;5103065;28;20474;-63
2021/06/07 05:11:03;;;;;;;25.42;14.65;;;;;;;11.15;88.42;102332.09;5102520;28;20028;-67
2021/06/07 05:13:29;;;;;;;27.30;15.35;;;;;;;11.21;87.85;102341.03;5104369;28;20015;-67
2021/06/07 05:15:56;;;;;;;26.58;14.50;;;;;;;11.31;87.60;102341.34;5101341;28;20077;-67
2021/06/07 05:18:21;;;;;;;24.77;14.77;;;;;;;11.39;85.59;102338.88;5105102;28;20024;-67
2021/06/07 05:20:47;;;;;;;24.48;14.02;;;;;;;11.47;84.70;102339.03;5101859;28;20030;-62
2021/06/07 05:23:14;;;;;;;24.58;14.48;;;;;;;11.57;84.10;102345.47;5103719;28;20028;-62
2021/06/07 05:25:41;;;;;;;24.88;14.27;;;;;;;11.62;83.97;102335.88;5102685;28;20033;-62
2021/06/07 05:28:09;;;;;;;24.38;14.27;;;;;;;11.66;83.32;102340.38;5102442;28;20070;-62
2021/06/07 05:30:36;;;;;;;25.75;14.80;;;;;;;11.70;83.23;102344.91;5103337;28;20119;-62
2021/06/07 05:33:02;;;;;;;24.98;14.63;;;;;;;11.77;82.61;102344.19;5101918;28;20032;-62
2021/06/07 05:35:30;;;;;;;24.40;14.35;;;;;;;11.83;81.82;102348.72;5104213;28;20024;-62
2021/06/07 05:37:57;;;;;;;25.88;14.60;;;;;;;11.83;81.75;102339.03;5101032;28;20034;-62
2021/06/07 05:40:24;;;;;;;23.92;14.05;;;;;;;11.92;81.38;102345.41;5088291;28;20513;-62
2021/06/07 05:42:50;;;;;;;24.95;13.98;;;;;;;12.00;81.27;102352.69;5092318;28;20102;-62
2021/06/07 05:45:17;;;;;;;25.20;13.90;;;;;;;12.06;81.10;102346.63;5091741;28;20069;-62
2021/06/07 05:47:44;;;;;;;24.55;13.20;;;;;;;12.08;79.98;102350.19;5091339;28;20035;-63
2021/06/07 05:50:13;;;;;;;23.77;13.65;;;;;;;12.16;79.91;102343.31;5090963;28;20406;-62
2021/06/07 05:52:48;;;;;;;24.20;12.50;;;;;;;12.25;77.66;102341.75;5091670;28;20051;-62
2021/06/07 05:55:21;;;;;;;23.42;12.27;;;;;;;12.31;77.70;102350.69;5089278;28;20047;-63
2021/06/07 05:57:49;;;;;;;22.88;12.30;;;;;;;12.38;76.76;102349.97;5094724;28;20093;-62
2021/06/07 06:00:20;;;;;;;23.55;12.10;;;;;;;12.47;76.83;102356.34;5090462;28;20032;-63
2021/06/07 06:02:46;;;;;;;23.35;11.95;;;;;;;12.49;76.35;102351.94;5094108;28;20088;-62
2021/06/07 06:05:12;;;;;;;23.73;11.80;;;;;;;12.54;77.24;102353.84;5094436;28;20471;-63
2021/06/07 06:07:38;;;;;;;24.92;11.65;;;;;;;12.65;75.33;102353.16;5095002;28;20382;-62
2021/06/07 06:10:04;;;;;;;23.77;11.73;;;;;;;12.71;76.11;102342.66;5095189;28;20027;-63
2021/06/07 06:12:30;;;;;;;21.63;10.88;;;;;;;12.76;74.39;102354.25;5096216;28;20387;-65
2021/06/07 06:14:55;;;;;;;23.35;10.73;;;;;;;12.82;74.75;102354.38;5094057;28;20032;-64
2021/06/07 06:17:21;;;;;;;22.17;10.57;;;;;;;12.85;72.67;102349.13;5094862;28;20110;-63
2021/06/07 06:19:46;;;;;;;22.40;10.18;;;;;;;12.93;72.32;102343.06;5095818;28;20498;-64
2021/06/07 06:22:13;;;;;;;21.00;10.32;;;;;;;13.03;71.24;102345.94;5095056;28;20032;-63
2021/06/07 06:24:39;;;;;;;21.63;10.05;;;;;;;13.09;71.70;102342.47;5094916;28;20020;-63
2021/06/07 06:27:04;;;;;;;22.88;10.05;;;;;;;13.16;70.57;102351.44;5096989;28;20027;-63
2021/06/07 06:29:30;;;;;;;21.50;10.32;;;;;;;13.22;71.42;102339.19;5094207;28;20017;-62
2021/06/07 06:31:56;;;;;;;20.95;10.15;;;;;;;13.29;70.76;102342.81;5095760;28;20326;-64
2021/06/07 06:34:21;;;;;;;22.42;9.45;;;;;;;13.36;69.40;102341.19;5093856;28;20020;-63
2021/06/07 06:36:47;;;;;;;21.80;10.02;;;;;;;13.48;70.19;102344.03;5095390;28;20024;-63
2021/06/07 06:39:12;;;;;;;21.45;9.10;;;;;;;13.51;67.96;102348.50;5094199;28;20032;-63
2021/06/07 06:41:38;;;;;;;21.48;9.30;;;;;;;13.60;68.86;102343.34;5095010;28;20417;-63
2021/06/07 06:44:04;;;;;;;21.40;8.77;;;;;;;13.67;67.73;102344.34;5094337;28;20416;-63
2021/06/07 06:46:30;;;;;;;22.08;9.23;;;;;;;13.71;66.96;102344.41;5095730;28;20114;-63
2021/06/07 06:48:55;;;;;;;20.65;9.20;;;;;;;13.78;66.63;102342.75;5094204;28;20107;-63
2021/06/07 06:51:21;;;;;;;20.80;9.40;;;;;;;13.91;67.51;102344.69;5095498;28;20109;-63
2021/06/07 06:53:47;;;;;;;21.23;9.60;;;;;;;13.95;65.99;102340.34;5091848;28;20126;-69
2021/06/07 06:56:12;;;;;;;19.83;8.27;;;;;;;14.01;64.17;102335.09;5095067;28;20040;-67
2021/06/07 06:58:37;;;;;;;19.67;7.93;;;;;;;14.11;63.90;102330.78;5093986;28;20425;-68
2021/06/07 07:01:03;;;;;;;19.52;7.90;;;;;;;14.21;62.76;102332.72;5094874;28;20024;-68
2021/06/07 07:03:29;;;;;;;20.63;7.82;;;;;;;14.26;62.73;102335.44;5092940;28;20430;-68
2021/06/07 07:05:55;;;;;;;20.90;7.75;;;;;;;14.33;64.71;102336.38;5094088;28;20110;-68
2021/06/07 07:08:21;;;;;;;20.48;8.23;;;;;;;14.39;62.85;102337.34;5094893;28;20482;-70
2021/06/07 07:10:48;;;;;;;20.85;7.97;;;;;;;14.48;64.23;102334.78;5084282;28;20085;-63
2021/06/07 07:13:13;;;;;;;21.58;8.40;;;;;;;14.60;61.42;102330.50;5094547;28;20024;-63
2021/06/07 07:15:39;;;;;;;18.70;6.95;;;;;;;14.64;60.06;102333.25;5092747;28;20459;-63
2021/06/07 07:18:06;;;;;;;21.05;7.72;;;;;;;14.71;60.62;102341.28;5092207;28;20016;-63
2021/06/07 07:20:32;;;;;;;19.60;7.20;;;;;;;14.73;60.12;102331.56;5092669;28;20043;-69
2021/06/07 07:22:57;;;;;;;20.25;7.55;;;;;;;14.88;60.62;102338.81;5089058;28;20023;-69
2021/06/07 07:25:23;;;;;;;19.10;7.22;;;;;;;15.02;59.97;102344.28;5092085;28;20039;-70
2021/06/07 07:27:49;;;;;;;20.95;7.10;;;;;;;15.04;58.71;102338.06;5091299;28;20016;-66
2021/06/07 07:30:18;;;;;;;19.50;6.10;;;;;;;15.15;59.07;102340.84;5090589;28;20032;-69
2021/06/07 07:32:46;;;;;;;18.38;6.00;;;;;;;15.24;57.60;102340.91;5089048;28;20039;-67
2021/06/07 07:35:12;;;;;;;17.02;5.80;;;;;;;15.29;55.58;102340.97;5091279;28;20374;-66
2021/06/07 07:37:38;;;;;;;18.10;5.70;;;;;;;15.39;56.15;102339.28;5090477;28;20024;-68
2021/06/07 07:40:05;;;;;;;16.45;5.30;;;;;;;15.47;56.49;102342.91;5091775;28;20443;-63
2021/06/07 07:42:31;;;;;;;20.25;6.20;;;;;;;15.59;56.96;102336.75;5090758;28;20060;-63
2021/06/07 07:44:57;;;;;;;18.58;6.15;;;;;;;15.73;56.99;102340.41;5091922;28;20118;-63
2021/06/07 07:47:22;;;;;;;17.33;5.85;;;;;;;15.84;56.26;102343.16;5088567;28;20034;-63
2021/06/07 07:49:48;;;;;;;17.45;5.88;;;;;;;15.95;55.20;102337.94;5092882;28;20046;-63
2021/06/07 07:52:14;;;;;;;17.90;5.80;;;;;;;15.99;54.38;102339.72;5092886;28;20070;-62
2021/06/07 07:54:39;;;;;;;17.65;5.85;;;;;;;16.15;55.63;102338.00;5092335;28;20566;-63
2021/06/07 07:57:06;;;;;;;17.02;5.60;;;;;;;16.27;54.82;102340.75;5091454;28;20091;-62
2021/06/07 07:59:33;;;;;;;17.13;5.57;;;;;;;16.35;54.08;102344.34;5088046;28;20448;-63
2021/06/07 08:01:58;;;;;;;15.82;5.30;;;;;;;16.48;52.44;102336.38;5089480;28;20035;-63
2021/06/07 08:04:24;;;;;;;16.48;5.35;;;;;;;16.51;51.52;102331.94;5090726;28;20028;-62
2021/06/07 08:06:49;;;;;;;17.33;5.68;;;;;;;16.59;52.47;102333.75;5092849;28;20090;-63
2021/06/07 08:09:15;;;;;;;16.38;5.50;;;;;;;16.64;50.76;102324.84;5091411;28;20038;-63
2021/06/07 08:11:40;;;;;;;17.42;5.68;;;;;;;16.76;52.45;102329.34;5089503;28;20020;-62
2021/06/07 08:14:06;;;;;;;15.32;5.50;;;;;;;16.93;54.23;102333.84;5088398;28;20402;-63
2021/06/07 08:16:31;;;;;;;17.13;5.80;;;;;;;17.02;52.59;102334.75;5088087;28;20058;-63
2021/06/07 08:18:57;;;;;;;16.77;5.22;;;;;;;17.13;50.59;102329.41;5090063;28;20022;-62
2021/06/07 08:21:22;;;;;;;17.92;5.60;;;;;;;17.24;51.15;102335.66;5089549;28;20352;-62
2021/06/07 08:23:48;;;;;;;16.00;4.82;;;;;;;17.47;52.80;102325.84;5089072;28;20028;-64
2021/06/07 08:26:13;;;;;;;17.02;5.20;;;;;;;17.53;50.40;102329.41;5089142;28;20020;-62
2021/06/07 08:28:39;;;;;;;16.83;5.20;;;;;;;17.60;48.04;102323.16;5092221;28;20076;-61
2021/06/07 08:31:04;;;;;;;16.40;5.03;;;;;;;17.68;49.31;102331.16;5092068;28;20416;-62
2021/06/07 08:33:33;;;;;;;14.60;4.68;;;;;;;17.64;45.55;102329.38;5092218;28;20062;-61
2021/06/07 08:35:59;;;;;;;12.60;4.70;;;;;;;17.77;47.56;102330.25;5092915;28;20031;-61
2021/06/07 08:38:25;;;;;;;17.00;5.20;;;;;;;17.86;48.75;102337.38;5095417;28;20358;-65
2021/06/07 08:40:53;;;;;;;14.50;4.78;;;;;;;17.94;47.13;102330.25;5092362;28;20093;-64
2021/06/07 08:43:19;;;;;;;15.65;5.00;;;;;;;18.05;48.58;102320.38;5093173;28;20020;-64
2021/06/07 08:45:45;;;;;;;14.07;4.50;;;;;;;18.24;45.99;102331.03;5091816;28;20382;-66
2021/06/07 08:48:10;;;;;;;14.80;4.50;;;;;;;18.42;46.58;102324.69;5092874;28;20024;-64
2021/06/07 08:50:36;;;;;;;16.13;5.20;;;;;;;18.57;47.46;102323.75;5091092;28;20028;-66
2021/06/07 08:53:01;;;;;;;18.35;5.57;;;;;;;18.62;45.79;102324.59;5092039;28;20210;-67
2021/06/07 08:55:28;;;;;;;17.30;6.18;;;;;;;18.74;46.36;102321.84;5096915;28;20066;-63
2021/06/07 08:57:55;;;;;;;17.00;5.72;;;;;;;18.87;46.39;102321.78;5094960;28;20489;-63
2021/06/07 09:00:24;;;;;;;17.17;5.15;;;;;;;19.13;46.82;102327.88;5092820;28;20016;-63
2021/06/07 09:02:57;;;;;;;16.45;5.28;;;;;;;19.29;44.56;102331.28;5091263;28;20020;-64
2021/06/07 09:05:22;;;;;;;;;;;;;;;19.38;46.56;102326.75;5092551;28;20619;-63
2021/06/07 09:07:56;;;;;;;16.73;5.43;;;;;;;19.39;44.51;102332.09;5092442;28;20023;-63
2021/06/07 09:10:22;;;;;;;15.43;5.30;;;;;;;19.56;44.85;102328.41;5093052;28;20020;-63
2021/06/07 09:12:52;;;;;;;17.20;5.72;;;;;;;19.70;45.15;102323.75;5102629;28;20059;-63
2021/06/07 09:15:26;;;;;;;13.85;4.70;;;;;;;19.90;44.92;102328.06;5101257;28;20024;-63
2021/06/07 09:17:52;;;;;;;17.92;5.43;;;;;;;19.92;42.18;102323.56;5103957;28;20347;-63
2021/06/07 09:20:20;;;;;;;16.05;5.53;;;;;;;19.91;41.67;102324.47;5101198;28;20038;-64
2021/06/07 09:22:57;;;;;;;17.30;5.53;;;;;;;20.06;42.78;102324.28;5104414;28;20496;-63
2021/06/07 09:25:28;;;;;;;12.43;4.15;;;;;;;20.16;41.68;102320.56;5099426;28;20035;-63
2021/06/07 09:28:09;;;;;;;15.90;4.88;;;;;;;20.17;41.91;102319.69;5103942;28;20441;-63
2021/06/07 09:30:49;;;;;;;15.50;5.10;;;;;;;20.32;41.90;102325.75;5104080;28;20028;-63
2021/06/07 09:33:43;;;;;;;20.02;5.88;;;;;;;20.42;42.81;102324.72;5097675;28;20028;-63
2021/06/07 09:36:24;;;;;;;16.88;5.30;;;;;;;20.66;44.21;102322.59;5098121;28;20493;-63
2021/06/07 09:39:00;;;;;;;16.42;5.10;;;;;;;20.86;42.94;102330.41;5098581;28;20016;-63
2021/06/07 09:41:28;;;;;;;17.10;5.40;;;;;;;21.16;43.76;102333.50;5103216;28;20024;-63
2021/06/07 09:44:01;;;;;;;18.20;5.93;;;;;;;21.25;41.26;102325.31;5101978;28;20028;-63
2021/06/07 09:46:30;;;;;;;16.75;5.55;;;;;;;21.36;40.44;102328.69;5102573;28;20038;-63
2021/06/07 09:49:19;;;;;;;16.58;5.65;;;;;;;21.35;41.55;102328.72;5102361;28;20020;-64
2021/06/07 09:51:57;;;;;;;17.38;6.22;;;;;;;21.20;41.66;102322.69;5097485;28;20027;-63
2021/06/07 09:54:24;;;;;;;18.85;6.00;;;;;;;21.48;41.41;102330.28;5098869;28;20119;-64
2021/06/07 09:56:57;;;;;;;18.42;6.20;;;;;;;21.70;41.77;102332.63;5103797;28;20040;-64
2021/06/07 09:59:35;;;;;;;16.60;5.75;;;;;;;21.87;42.31;102329.59;5101776;28;20403;-63
2021/06/07 10:02:12;;;;;;;17.35;6.30;;;;;;;22.19;40.77;102328.94;5102191;28;20031;-63
2021/06/07 10:04:47;;;;;;;18.55;6.82;;;;;;;23.23;41.00;102326.63;5103769;28;20027;-63
2021/06/07 10:07:13;;;;;;;16.67;5.70;;;;;;;24.91;35.32;102323.63;5097126;28;20028;-63
2021/06/07 10:09:38;;;;;;;16.23;5.50;;;;;;;26.39;32.67;102316.56;5103675;28;20030;-64
2021/06/07 10:12:23;;;;;;;19.88;6.82;;;;;;;27.64;31.60;102324.13;5101823;28;20368;-64
2021/06/07 10:14:48;;;;;;;17.70;5.97;;;;;;;29.03;28.39;102326.63;5103800;28;20028;-64
2021/06/07 10:17:14;;;;;;;17.75;5.20;;;;;;;29.79;27.25;102319.13;5100765;28;20035;-64
2021/06/07 10:22:10;;;;;;;17.47;5.50;;;;;;;31.04;24.54;102320.34;5100603;28;20028;-64
2021/06/07 10:24:36;;;;;;;17.67;5.78;;;;;;;30.69;24.62;102317.81;5103577;28;20272;-64
2021/06/07 10:27:02;;;;;;;16.58;5.70;;;;;;;30.69;25.75;102315.97;5102207;28;20426;-64
2021/06/07 10:29:32;;;;;;;16.27;5.63;;;;;;;31.26;24.71;102314.47;5102439;28;20027;-64
2021/06/07 10:32:07;;;;;;;16.05;5.30;;;;;;;31.87;25.48;102318.03;5102576;28;20023;-64
2021/06/07 10:34:52;;;;;;;16.08;5.13;;;;;;;32.46;24.64;102315.19;5102728;28;20013;-64
2021/06/07 10:37:18;;;;;;;16.65;5.50;;;;;;;32.39;23.57;102310.19;5097852;28;20024;-66
2021/06/07 10:39:44;;;;;;;15.73;5.47;;;;;;;32.84;22.72;102313.63;5102644;28;20466;-65
2021/06/07 10:42:09;;;;;;;15.43;5.22;;;;;;;33.28;21.34;102314.34;5100368;28;20030;-69
2021/06/07 10:44:52;;;;;;;18.03;5.50;;;;;;;33.44;22.53;102308.66;5101301;28;20103;-69
2021/06/07 10:47:24;;;;;;;17.30;5.65;;;;;;;33.98;22.03;102311.22;5101207;28;20632;-68
2021/06/07 10:50:08;;;;;;;16.90;5.43;;;;;;;34.69;21.33;102297.75;5106432;28;20023;-69
2021/06/07 10:52:59;;;;;;;17.63;4.90;;;;;;;34.80;21.72;102296.09;5094383;28;20039;-69
2021/06/07 10:55:30;;;;;;;13.95;4.93;;;;;;;34.69;20.94;102292.28;5059555;28;20040;-68
2021/06/07 10:58:00;;;;;;;18.45;4.75;;;;;;;34.85;20.62;102296.59;5063306;28;20037;-69
2021/06/07 11:00:28;;;;;;;19.23;5.60;;;;;;;34.98;20.43;102300.19;5062651;28;20036;-69
2021/06/07 11:02:56;;;;;;;15.82;5.53;;;;;;;34.49;19.60;102303.88;5063229;28;20040;-65
2021/06/07 11:05:32;;;;;;;14.65;5.18;;;;;;;34.64;20.46;102299.09;5062495;28;20050;-67
2021/06/07 11:08:05;;;;;;;13.32;4.10;;;;;;;35.41;19.91;102294.09;5063577;28;20025;-68
2021/06/07 11:10:35;;;;;;;11.77;4.43;;;;;;;35.66;18.53;102294.00;5061314;28;20473;-68
2021/06/07 11:13:04;;;;;;;13.57;4.75;;;;;;;35.16;18.38;102289.63;5063819;28;20380;-69
2021/06/07 11:15:35;;;;;;;13.40;4.55;;;;;;;35.36;19.98;102292.69;5061488;28;20158;-69
2021/06/07 11:18:21;;;;;;;14.85;4.70;;;;;;;36.10;18.66;102293.19;5063980;28;20106;-65